Weather at Batumi International Airport

Public forecast

Using degrees Celsius for public forecast. Weather courtesy of forecast.io.

Current aviation weather report (METAR) for Batumi International Airport

2024/02/22 10:00 (retrieved 26 minutes ago)

UGSB 221000Z 36007KT CAVOK 11/07 Q1022 NOSIG

Aviation forecast (TAF) for Batumi International Airport

2024/02/22 06:05 (retrieved 4 hours ago)

TAF UGSB 220500Z 2206/2306 VRB02KT 9999 BKN100 TX13/2211Z TN08/2303Z TEMPO 2212/2218 26010KT 4000 RA SCT010 BKN025 TEMPO 2218/2303 23010KT 3000 DZ BR BKN006 OVC020